Terminal Aerodrome Forecast
Issued by NWS

Home | Current Version | Previous Version | Text Only | Print | Product List | Glossary On
Versions: 1 2 3 4 5 6 7 8 9 10 11 12 13 14 15 16 17 18 19 20 21 22 23 24 25
000
FTUS43 KAPX 021400 AAA
TAFAPN
TAF AMD
KAPN 021426Z 0214/0312 16007KT 4SM BR SCT008 OVC016
     FM021600 15008KT 5SM BR SCT008 OVC060
     FM021900 14010KT 6SM -SHRA BR OVC045
     FM022000 14010KT 5SM -SHRA BR OVC040
     FM022300 13009KT 6SM -SHRA OVC035
     FM030500 14008KT 2SM RA BR SCT006 OVC022=

USA.gov is the U.S. government's official web portal to all federal, state and local government web resources and services.